Time;durP1;ratioP1;P1;durP2;ratioP2;P2;SDS_P1;SDS_P2;PMS_P1;PMS_P2;Temp;Humidity;BMP_temperature;BMP_pressure;BME280_temperature;BME280_humidity;BME280_pressure;Samples;Min_cycle;Max_cycle;Signal;HPM_P1;HPM_P2
2023/06/22 00:01:18;;;;;;;0.50;0.30;;;;;;;24.84;80.40;100343.66;5051952;28;20550;-52
2023/06/22 00:03:45;;;;;;;0.50;0.30;;;;;;;24.72;81.92;100342.84;5047107;28;20854;-52
2023/06/22 00:06:11;;;;;;;0.53;0.47;;;;;;;24.70;83.34;100329.41;5045759;28;20536;-52
2023/06/22 00:08:38;;;;;;;0.50;0.20;;;;;;;24.74;85.29;100317.25;5030531;28;20473;-52
2023/06/22 00:11:04;;;;;;;0.50;0.30;;;;;;;24.67;86.69;100321.50;5053492;28;20529;-52
2023/06/22 00:13:31;;;;;;;0.50;0.20;;;;;;;24.40;89.68;100313.03;5053733;28;20795;-52
2023/06/22 00:15:57;;;;;;;0.50;0.20;;;;;;;24.58;91.14;100313.28;5045436;28;20549;-52
2023/06/22 00:18:27;;;;;;;0.50;0.30;;;;;;;24.37;94.64;100318.69;5053893;28;20458;-52
2023/06/22 00:20:58;;;;;;;0.50;0.23;;;;;;;24.16;94.32;100310.50;5050842;28;20462;-52
2023/06/22 00:23:25;;;;;;;0.50;0.20;;;;;;;24.07;97.88;100316.72;5045417;28;20526;-52
2023/06/22 00:25:52;;;;;;;0.50;0.20;;;;;;;23.83;97.47;100325.91;5045163;28;20525;-52
2023/06/22 00:28:18;;;;;;;0.50;0.20;;;;;;;24.21;97.20;100341.72;5045277;28;20959;-52
2023/06/22 00:30:45;;;;;;;0.50;0.27;;;;;;;23.91;100.00;100377.75;5053003;28;20467;-52
2023/06/22 00:33:12;;;;;;;0.50;0.20;;;;;;;23.72;100.00;100399.25;5045211;28;20479;-52
2023/06/22 00:35:41;;;;;;;0.50;0.23;;;;;;;23.73;100.00;100416.41;5045080;28;20844;-52
2023/06/22 00:38:08;;;;;;;0.50;0.20;;;;;;;23.57;100.00;100433.94;5045075;28;20524;-52
2023/06/22 00:40:35;;;;;;;0.50;0.20;;;;;;;23.44;100.00;100454.00;5046714;28;20471;-51
2023/06/22 00:43:01;;;;;;;0.50;0.30;;;;;;;23.45;100.00;100462.03;5052296;28;20482;-52
2023/06/22 00:45:28;;;;;;;0.50;0.20;;;;;;;23.38;100.00;100454.47;5048005;28;20550;-52
2023/06/22 00:47:57;;;;;;;0.50;0.20;;;;;;;23.52;100.00;100421.69;5053111;28;20475;-52
2023/06/22 00:50:26;;;;;;;0.50;0.20;;;;;;;22.69;100.00;100370.38;5046220;28;20468;-52
2023/06/22 00:52:56;;;;;;;0.50;0.30;;;;;;;22.86;100.00;100299.47;5046374;28;20512;-52
2023/06/22 00:55:25;;;;;;;0.50;0.30;;;;;;;22.42;100.00;100248.75;5050121;28;20498;-52
2023/06/22 00:57:56;;;;;;;0.50;0.30;;;;;;;22.24;100.00;100233.94;5048040;28;20467;-52
2023/06/22 01:00:24;;;;;;;0.50;0.20;;;;;;;21.80;100.00;100230.09;5051099;28;20970;-51
2023/06/22 01:02:53;;;;;;;0.50;0.20;;;;;;;21.97;100.00;100237.78;5047976;28;20506;-52
2023/06/22 01:05:21;;;;;;;0.50;0.30;;;;;;;22.36;100.00;100249.25;5046569;28;20470;-52
2023/06/22 01:08:06;;;;;;;0.50;0.20;;;;;;;22.68;100.00;100271.94;5049488;28;20959;-52
2023/06/22 01:10:32;;;;;;;0.50;0.30;;;;;;;22.54;100.00;100271.31;5043413;28;20558;-52
2023/06/22 01:13:04;;;;;;;0.50;0.20;;;;;;;22.50;100.00;100278.81;5052663;28;20483;-52
2023/06/22 01:15:37;;;;;;;0.50;0.20;;;;;;;22.81;100.00;100284.53;5046604;28;20509;-52
2023/06/22 01:18:05;;;;;;;0.50;0.20;;;;;;;22.77;100.00;100297.47;5052678;28;20560;-52
2023/06/22 01:20:34;;;;;;;0.50;0.20;;;;;;;22.71;100.00;100314.19;5043964;28;20901;-53
2023/06/22 01:23:19;;;;;;;0.50;0.50;;;;;;;22.55;100.00;100328.09;5052547;28;20501;-52
2023/06/22 01:25:51;;;;;;;0.50;0.20;;;;;;;22.62;100.00;100337.47;5043900;28;21066;-52
2023/06/22 01:28:47;;;;;;;0.50;0.20;;;;;;;22.56;100.00;100321.69;5051868;28;20498;-51
2023/06/22 01:31:20;;;;;;;0.50;0.30;;;;;;;22.65;100.00;100307.44;5052452;28;20554;-52
2023/06/22 01:33:55;;;;;;;0.50;0.23;;;;;;;22.49;100.00;100298.78;5043298;28;20858;-51
2023/06/22 01:36:23;;;;;;;0.50;0.20;;;;;;;22.40;100.00;100270.53;5050115;28;20888;-52
2023/06/22 01:38:50;;;;;;;0.50;0.30;;;;;;;22.20;100.00;100267.63;5041501;28;20473;-52
2023/06/22 01:41:17;;;;;;;0.50;0.20;;;;;;;22.07;100.00;100276.75;5045781;28;21059;-52
2023/06/22 01:43:45;;;;;;;0.50;0.20;;;;;;;22.20;100.00;100271.22;5050561;28;20881;-52
2023/06/22 01:46:12;;;;;;;0.50;0.20;;;;;;;22.24;100.00;100277.28;5047605;28;20469;-52
2023/06/22 01:48:39;;;;;;;0.50;0.20;;;;;;;22.29;100.00;100272.34;5043730;28;20467;-52
2023/06/22 01:51:06;;;;;;;0.50;0.20;;;;;;;22.33;100.00;100271.13;5043655;28;20462;-52
2023/06/22 01:53:32;;;;;;;0.50;0.20;;;;;;;22.27;100.00;100264.34;5043667;28;20459;-52
2023/06/22 01:55:59;;;;;;;0.50;0.20;;;;;;;22.36;100.00;100258.22;5047344;28;20465;-52
2023/06/22 01:58:28;;;;;;;0.50;0.20;;;;;;;22.39;100.00;100249.00;5044830;28;20467;-52
2023/06/22 02:01:03;;;;;;;0.50;0.27;;;;;;;22.86;100.00;100258.78;5047792;28;20471;-53
2023/06/22 02:03:34;;;;;;;0.50;0.20;;;;;;;22.83;100.00;100278.03;5046320;28;20564;-53
2023/06/22 02:06:16;;;;;;;0.60;0.50;;;;;;;22.61;100.00;100296.94;5051929;28;20489;-52
2023/06/22 02:08:57;;;;;;;0.50;0.30;;;;;;;22.56;100.00;100293.72;5045715;28;20466;-53
2023/06/22 02:11:27;;;;;;;0.50;0.20;;;;;;;22.61;100.00;100303.22;5042831;28;20478;-53
2023/06/22 02:13:55;;;;;;;0.50;0.20;;;;;;;22.60;100.00;100315.03;5050897;28;20459;-52
2023/06/22 02:16:22;;;;;;;0.50;0.20;;;;;;;22.83;100.00;100318.69;5051870;28;20977;-53
2023/06/22 02:18:52;;;;;;;0.50;0.20;;;;;;;23.19;100.00;100312.19;5051775;28;20872;-53
2023/06/22 02:21:20;;;;;;;0.73;0.63;;;;;;;22.87;100.00;100305.75;5051788;28;20496;-53
2023/06/22 02:23:46;;;;;;;0.50;0.20;;;;;;;22.88;100.00;100302.91;5047581;28;20498;-53
2023/06/22 02:26:15;;;;;;;1.33;1.30;;;;;;;22.96;100.00;100288.75;5045948;28;20463;-53
2023/06/22 02:28:42;;;;;;;0.50;0.20;;;;;;;22.73;100.00;100283.28;5049447;28;20470;-52
2023/06/22 02:31:08;;;;;;;0.50;0.20;;;;;;;22.60;100.00;100258.13;5045370;28;20866;-53
2023/06/22 02:33:35;;;;;;;0.50;0.40;;;;;;;22.08;100.00;100248.69;5042691;28;20458;-53
2023/06/22 02:36:05;;;;;;;0.50;0.23;;;;;;;21.94;100.00;100239.84;5026629;28;20516;-53
2023/06/22 02:38:34;;;;;;;0.50;0.20;;;;;;;22.11;100.00;100232.19;5043797;28;20466;-52
2023/06/22 02:41:01;;;;;;;0.50;0.20;;;;;;;22.26;100.00;100231.97;5043946;28;20470;-53
2023/06/22 02:43:27;;;;;;;0.50;0.30;;;;;;;22.25;100.00;100231.13;5065707;23;20986;-48
2023/06/22 02:45:55;;;;;;;0.50;0.30;;;;;;;22.27;100.00;100229.16;5051188;28;20473;-48
2023/06/22 02:48:21;;;;;;;0.50;0.20;;;;;;;22.21;100.00;100228.78;5051526;28;20963;-49
2023/06/22 02:50:47;;;;;;;0.50;0.20;;;;;;;22.20;100.00;100224.31;5051344;28;20963;-48
2023/06/22 02:53:14;;;;;;;0.50;0.20;;;;;;;22.58;100.00;100222.16;5054147;28;20478;-49
2023/06/22 02:55:41;;;;;;;0.50;0.20;;;;;;;22.46;100.00;100224.00;5055212;28;20462;-49
2023/06/22 02:58:08;;;;;;;0.50;0.20;;;;;;;22.17;100.00;100212.75;5055314;28;20470;-49
2023/06/22 03:00:34;;;;;;;0.50;0.20;;;;;;;22.17;100.00;100206.47;5054931;28;20462;-49
2023/06/22 03:03:01;;;;;;;0.50;0.20;;;;;;;22.28;100.00;100209.19;5055024;28;20536;-48
2023/06/22 03:05:28;;;;;;;0.50;0.20;;;;;;;22.25;100.00;100214.00;5055368;28;20466;-48
2023/06/22 03:07:54;;;;;;;0.50;0.20;;;;;;;22.06;100.00;100212.72;5054858;28;21030;-50
2023/06/22 03:10:21;;;;;;;0.50;0.20;;;;;;;22.08;100.00;100208.06;5054792;28;21028;-48
2023/06/22 03:12:47;;;;;;;0.50;0.30;;;;;;;22.30;100.00;100207.22;5054509;28;20510;-50
2023/06/22 03:15:14;;;;;;;0.73;0.73;;;;;;;22.13;100.00;100202.28;5054865;28;20469;-49
2023/06/22 03:17:41;;;;;;;0.50;0.30;;;;;;;22.27;100.00;100214.75;5054561;28;20466;-49
2023/06/22 03:20:12;;;;;;;0.50;0.20;;;;;;;22.56;100.00;100209.72;5054759;28;21012;-49
2023/06/22 03:22:40;;;;;;;0.50;0.20;;;;;;;22.26;100.00;100219.31;5054695;28;20482;-48
2023/06/22 03:25:12;;;;;;;0.50;0.20;;;;;;;22.12;100.00;100208.69;5054786;28;20556;-48
2023/06/22 03:27:40;;;;;;;0.50;0.20;;;;;;;22.22;100.00;100203.41;5054644;28;20458;-49
2023/06/22 03:30:08;;;;;;;0.50;0.27;;;;;;;22.72;100.00;100197.53;5052437;28;20467;-49
2023/06/22 03:32:35;;;;;;;0.50;0.30;;;;;;;22.39;100.00;100201.09;5054462;28;20521;-48
2023/06/22 03:35:02;;;;;;;0.50;0.20;;;;;;;22.13;100.00;100195.03;5054633;28;20493;-49
2023/06/22 03:37:29;;;;;;;0.50;0.20;;;;;;;22.17;100.00;100196.50;5054617;28;20462;-48
2023/06/22 03:39:55;;;;;;;0.50;0.20;;;;;;;21.96;100.00;100200.84;5054241;28;20832;-49
2023/06/22 03:42:22;;;;;;;0.50;0.20;;;;;;;22.02;100.00;100197.66;5054182;28;21074;-50
2023/06/22 03:44:48;;;;;;;0.50;0.20;;;;;;;22.06;100.00;100206.44;5054108;28;20585;-49
2023/06/22 03:47:15;;;;;;;0.50;0.30;;;;;;;21.98;100.00;100212.44;5054549;28;20462;-49
2023/06/22 03:49:41;;;;;;;0.50;0.30;;;;;;;21.91;100.00;100213.88;5054211;28;20473;-48
2023/06/22 03:52:08;;;;;;;0.50;0.20;;;;;;;22.02;100.00;100208.50;5054236;28;20491;-48
2023/06/22 03:54:34;;;;;;;0.50;0.30;;;;;;;22.02;100.00;100213.91;5054142;28;20512;-49
2023/06/22 03:57:01;;;;;;;0.50;0.20;;;;;;;21.86;100.00;100208.81;5054527;28;20497;-48
2023/06/22 03:59:27;;;;;;;2.10;2.00;;;;;;;21.97;100.00;100210.69;5054742;28;20485;-50
2023/06/22 04:01:54;;;;;;;0.50;0.20;;;;;;;21.97;100.00;100215.25;5053803;28;21010;-49
2023/06/22 04:04:20;;;;;;;0.50;0.20;;;;;;;21.99;100.00;100214.16;5053369;28;21018;-49
2023/06/22 04:06:47;;;;;;;0.50;0.20;;;;;;;21.90;100.00;100217.56;5054085;28;20832;-49
2023/06/22 04:09:14;;;;;;;0.50;0.30;;;;;;;21.87;100.00;100220.50;5053917;28;20462;-49
2023/06/22 04:11:40;;;;;;;0.50;0.30;;;;;;;21.96;100.00;100225.22;5046767;28;20497;-49
2023/06/22 04:14:06;;;;;;;0.50;0.30;;;;;;;21.90;100.00;100220.25;5053762;28;20467;-50
2023/06/22 04:16:33;;;;;;;0.50;0.20;;;;;;;21.86;100.00;100230.47;5053584;28;20466;-49
2023/06/22 04:18:59;;;;;;;0.50;0.20;;;;;;;22.15;100.00;100230.09;5053957;28;20466;-50
2023/06/22 04:21:26;;;;;;;0.50;0.20;;;;;;;22.04;100.00;100233.59;5053801;28;20462;-50
2023/06/22 04:23:52;;;;;;;0.50;0.20;;;;;;;22.04;100.00;100228.19;5053382;28;20530;-49
2023/06/22 04:26:20;;;;;;;0.50;0.20;;;;;;;22.08;100.00;100235.16;5053752;28;20462;-49
2023/06/22 04:28:51;;;;;;;0.67;0.67;;;;;;;22.17;100.00;100226.28;5053464;28;20474;-49
2023/06/22 04:31:20;;;;;;;0.50;0.20;;;;;;;22.05;100.00;100229.94;5053512;28;20541;-49
2023/06/22 04:33:47;;;;;;;0.50;0.20;;;;;;;22.08;100.00;100218.03;5053096;28;20875;-49
2023/06/22 04:36:13;;;;;;;0.50;0.20;;;;;;;22.09;100.00;100223.31;5053314;28;20521;-49
2023/06/22 04:38:40;;;;;;;0.50;0.20;;;;;;;22.07;100.00;100230.72;5053046;28;20982;-49
2023/06/22 04:41:07;;;;;;;0.50;0.20;;;;;;;21.84;100.00;100220.75;5053492;28;20440;-49
2023/06/22 04:43:34;;;;;;;0.50;0.30;;;;;;;22.08;100.00;100220.75;5052769;28;20490;-49
2023/06/22 04:46:03;;;;;;;0.50;0.20;;;;;;;22.39;100.00;100221.91;5053424;28;20442;-50
2023/06/22 04:48:33;;;;;;;0.50;0.30;;;;;;;22.16;100.00;100215.56;5053360;28;20839;-49
2023/06/22 04:51:03;;;;;;;0.50;0.20;;;;;;;22.15;100.00;100216.56;5052938;28;20467;-49
2023/06/22 04:53:31;;;;;;;0.50;0.20;;;;;;;22.14;100.00;100215.69;5053221;28;20471;-49
2023/06/22 04:55:58;;;;;;;0.50;0.23;;;;;;;22.26;100.00;100210.31;5047547;28;21028;-50
2023/06/22 04:58:26;;;;;;;1.40;1.30;;;;;;;22.34;100.00;100218.69;5053048;28;20549;-50
2023/06/22 05:00:53;;;;;;;0.50;0.20;;;;;;;22.60;100.00;100214.78;5052863;28;20473;-49
2023/06/22 05:03:19;;;;;;;0.50;0.20;;;;;;;22.69;100.00;100219.47;5052602;28;20521;-49
2023/06/22 05:05:49;;;;;;;0.50;0.20;;;;;;;23.11;100.00;100225.13;5052517;28;20862;-49
2023/06/22 05:08:16;;;;;;;0.70;0.70;;;;;;;23.54;100.00;100213.44;5052938;28;20467;-49
2023/06/22 05:10:42;;;;;;;0.50;0.40;;;;;;;23.78;100.00;100215.97;5050146;28;20460;-49
2023/06/22 05:13:29;;;;;;;0.47;0.20;;;;;;;24.24;100.00;100215.59;5052731;28;20489;-49
2023/06/22 05:16:00;;;;;;;0.50;0.20;;;;;;;24.51;100.00;100206.94;5051324;28;20501;-49
2023/06/22 05:18:29;;;;;;;0.50;0.20;;;;;;;24.97;98.42;100198.28;5052886;28;20462;-49
2023/06/22 05:20:56;;;;;;;0.50;0.20;;;;;;;25.42;96.84;100195.13;5052479;28;20442;-49
2023/06/22 05:23:23;;;;;;;0.50;0.27;;;;;;;26.14;94.31;100193.84;5052455;28;20483;-49
2023/06/22 05:25:49;;;;;;;0.50;0.20;;;;;;;25.80;89.50;100190.72;5052415;28;20491;-49
2023/06/22 05:28:16;;;;;;;0.50;0.20;;;;;;;25.42;91.32;100194.25;5060071;28;20472;-49
2023/06/22 05:30:42;;;;;;;0.50;0.27;;;;;;;25.46;91.99;100195.69;5052489;28;20480;-49
2023/06/22 05:33:09;;;;;;;0.50;0.30;;;;;;;24.85;92.30;100202.09;5053227;28;20925;-49
2023/06/22 05:35:35;;;;;;;0.50;0.30;;;;;;;24.30;93.63;100195.25;5052062;28;20471;-49
2023/06/22 05:38:02;;;;;;;0.50;0.30;;;;;;;24.64;93.03;100193.13;5052073;28;20943;-49
2023/06/22 05:40:28;;;;;;;0.50;0.30;;;;;;;24.50;93.89;100186.19;5052017;28;20965;-49
2023/06/22 05:42:55;;;;;;;0.50;0.30;;;;;;;24.99;93.03;100189.97;5051340;28;20469;-48
2023/06/22 05:45:22;;;;;;;0.50;0.30;;;;;;;24.52;93.55;100195.94;5051666;28;20490;-48
2023/06/22 05:47:48;;;;;;;0.50;0.30;;;;;;;24.89;93.60;100198.09;5052002;28;20480;-48
2023/06/22 05:50:15;;;;;;;0.50;0.20;;;;;;;25.29;91.41;100197.25;5052156;28;20463;-49
2023/06/22 05:52:41;;;;;;;0.63;0.57;;;;;;;25.27;91.07;100197.38;5051557;28;20548;-48
2023/06/22 05:55:08;;;;;;;0.50;0.20;;;;;;;25.16;91.32;100193.91;5051965;28;20498;-48
2023/06/22 05:57:35;;;;;;;0.50;0.30;;;;;;;25.17;91.55;100192.91;5051477;28;20831;-49
2023/06/22 06:00:05;;;;;;;0.50;0.20;;;;;;;25.28;91.47;100200.97;5052124;28;20447;-48
2023/06/22 06:02:33;;;;;;;0.50;0.30;;;;;;;25.38;89.40;100204.56;5051515;28;20826;-50
2023/06/22 06:05:02;;;;;;;0.50;0.20;;;;;;;25.37;90.48;100203.72;5051968;28;20965;-48
2023/06/22 06:07:29;;;;;;;0.50;0.30;;;;;;;25.69;89.16;100192.59;5051716;28;20824;-49
2023/06/22 06:09:56;;;;;;;0.50;0.20;;;;;;;25.13;90.20;100200.50;5051582;28;20554;-48
2023/06/22 06:12:22;;;;;;;0.50;0.20;;;;;;;25.31;90.82;100201.53;5051706;28;20554;-48
2023/06/22 06:14:51;;;;;;;0.50;0.20;;;;;;;25.20;90.57;100203.50;5051882;28;20516;-48
2023/06/22 06:17:17;;;;;;;0.50;0.30;;;;;;;25.79;89.39;100210.81;5051746;28;20441;-48
2023/06/22 06:19:44;;;;;;;0.50;0.30;;;;;;;25.56;89.11;100204.72;5051658;28;20466;-48
2023/06/22 06:22:10;;;;;;;0.50;0.30;;;;;;;25.53;89.44;100202.28;5051755;28;20461;-48
2023/06/22 06:24:37;;;;;;;7.20;2.37;;;;;;;25.21;90.31;100208.81;5051368;28;20525;-48
2023/06/22 06:27:04;;;;;;;0.50;0.30;;;;;;;25.08;91.13;100200.94;5052734;28;20470;-48
2023/06/22 06:29:32;;;;;;;0.50;0.30;;;;;;;24.58;93.87;100189.09;5055851;28;20445;-48
2023/06/22 06:31:58;;;;;;;0.50;0.27;;;;;;;25.12;92.76;100181.59;5055636;28;20907;-48
2023/06/22 06:34:25;;;;;;;0.50;0.20;;;;;;;24.94;93.08;100176.78;5056032;28;21038;-48
2023/06/22 06:36:51;;;;;;;0.50;0.23;;;;;;;24.85;94.14;100188.50;5055400;28;20478;-49
2023/06/22 06:39:18;;;;;;;0.50;0.30;;;;;;;25.06;93.98;100183.84;5055536;28;20489;-48
2023/06/22 06:41:44;;;;;;;0.50;0.30;;;;;;;25.37;92.73;100186.53;5055002;28;20961;-49
2023/06/22 06:44:11;;;;;;;0.50;0.30;;;;;;;25.71;91.67;100191.59;5055746;28;20469;-48
2023/06/22 06:46:37;;;;;;;0.50;0.20;;;;;;;26.06;89.94;100191.00;5055072;28;20524;-48
2023/06/22 06:49:04;;;;;;;0.50;0.23;;;;;;;25.71;90.22;100192.44;5055482;28;20469;-49
2023/06/22 06:51:30;;;;;;;0.50;0.30;;;;;;;25.92;90.59;100187.72;5055180;28;20466;-48
2023/06/22 06:53:57;;;;;;;0.50;0.30;;;;;;;25.93;89.55;100184.00;5047308;28;20473;-48
2023/06/22 06:56:23;;;;;;;0.50;0.30;;;;;;;25.59;89.75;100186.25;5055413;28;20466;-49
2023/06/22 06:58:51;;;;;;;0.50;0.30;;;;;;;26.01;88.83;100174.22;5054953;28;21034;-49
2023/06/22 07:01:17;;;;;;;0.50;0.30;;;;;;;26.06;87.01;100185.56;5055098;28;20462;-48
2023/06/22 07:03:47;;;;;;;0.50;0.23;;;;;;;26.01;88.40;100193.28;5054651;28;20492;-48
2023/06/22 07:06:14;;;;;;;0.50;0.20;;;;;;;26.11;87.14;100188.69;5049106;28;20480;-49
2023/06/22 07:08:40;;;;;;;0.50;0.27;;;;;;;26.15;86.55;100188.25;5054684;28;20491;-49
2023/06/22 07:11:07;;;;;;;0.50;0.20;;;;;;;26.06;87.74;100185.56;5055121;28;20437;-49
2023/06/22 07:13:34;;;;;;;0.50;0.30;;;;;;;26.45;84.84;100176.31;5052920;28;20540;-49
2023/06/22 07:16:00;;;;;;;0.50;0.30;;;;;;;26.73;85.20;100168.16;5054846;28;20437;-49
2023/06/22 07:18:27;;;;;;;0.50;0.27;;;;;;;26.45;83.77;100165.41;5054791;28;20920;-48
2023/06/22 07:20:54;;;;;;;0.50;0.20;;;;;;;26.48;83.38;100165.09;5054504;28;20437;-49
2023/06/22 07:23:20;;;;;;;0.50;0.30;;;;;;;26.54;82.50;100166.38;5054837;28;20483;-48
2023/06/22 07:25:46;;;;;;;0.50;0.20;;;;;;;26.88;83.18;100165.81;5054281;28;20863;-49
2023/06/22 07:28:13;;;;;;;0.50;0.30;;;;;;;26.64;83.95;100155.44;5054811;28;20467;-49
2023/06/22 07:30:39;;;;;;;0.50;0.30;;;;;;;27.14;81.60;100156.78;5054498;28;20477;-49
2023/06/22 07:33:08;;;;;;;0.50;0.20;;;;;;;26.74;83.63;100148.94;5051237;28;20504;-48
2023/06/22 07:35:35;;;;;;;0.50;0.30;;;;;;;26.72;83.03;100153.63;5051446;28;20433;-49
2023/06/22 07:38:01;;;;;;;0.50;0.23;;;;;;;26.84;82.31;100146.97;5054182;28;20486;-49
2023/06/22 07:40:31;;;;;;;0.50;0.20;;;;;;;26.84;82.06;100143.41;5053828;28;20448;-51
2023/06/22 07:42:58;;;;;;;0.50;0.27;;;;;;;26.71;83.60;100146.47;5048029;28;20494;-48
2023/06/22 07:45:25;;;;;;;0.50;0.30;;;;;;;26.77;82.41;100153.22;5054104;28;21073;-49
2023/06/22 07:47:51;;;;;;;0.50;0.30;;;;;;;27.18;81.31;100145.53;5053972;28;20474;-49
2023/06/22 07:50:18;;;;;;;0.50;0.30;;;;;;;26.69;81.83;100156.69;5054154;28;20445;-49
2023/06/22 07:52:44;;;;;;;0.50;0.30;;;;;;;26.60;80.45;100154.88;5054628;28;20489;-50
2023/06/22 07:55:11;;;;;;;0.50;0.23;;;;;;;27.21;81.10;100146.09;5054142;28;20848;-50
2023/06/22 07:57:37;;;;;;;2.40;0.90;;;;;;;26.89;81.14;100143.81;5053846;28;20463;-50
2023/06/22 08:00:14;;;;;;;0.50;0.27;;;;;;;27.13;80.62;100138.66;5053969;28;20480;-49
2023/06/22 08:02:42;;;;;;;0.50;0.23;;;;;;;27.15;81.18;100130.34;5053689;28;20865;-49
2023/06/22 08:05:09;;;;;;;0.50;0.20;;;;;;;27.41;80.80;100130.41;5054058;28;20497;-49
2023/06/22 08:07:56;;;;;;;0.50;0.30;;;;;;;27.35;81.11;100118.25;5053649;28;20433;-49
2023/06/22 08:10:23;;;;;;;0.50;0.40;;;;;;;27.15;81.94;100122.16;5053892;28;20934;-49
2023/06/22 08:12:49;;;;;;;0.50;0.20;;;;;;;26.89;81.30;100112.94;5052106;28;21247;-50
2023/06/22 08:15:15;;;;;;;0.50;0.20;;;;;;;27.32;80.82;100110.38;5053666;28;20924;-49
2023/06/22 08:17:43;;;;;;;0.77;0.77;;;;;;;27.55;80.08;100109.88;5053694;28;20437;-49
2023/06/22 08:20:13;;;;;;;0.50;0.30;;;;;;;27.53;79.00;100114.66;5053964;28;20443;-49
2023/06/22 08:22:43;;;;;;;0.50;0.30;;;;;;;28.03;75.95;100113.03;5053405;28;20903;-50
2023/06/22 08:25:11;;;;;;;0.50;0.30;;;;;;;28.08;77.09;100108.97;5053580;28;20469;-50
2023/06/22 08:27:37;;;;;;;0.50;0.30;;;;;;;28.20;76.28;100107.66;5053337;28;20551;-50
2023/06/22 08:30:05;;;;;;;0.50;0.30;;;;;;;27.74;76.46;100090.63;5053624;28;20520;-49
2023/06/22 08:32:32;;;;;;;0.50;0.30;;;;;;;27.51;78.73;100090.22;5053310;28;20544;-50
2023/06/22 08:35:00;;;;;;;0.50;0.30;;;;;;;27.22;77.67;100092.34;5049430;28;20437;-50
2023/06/22 08:37:35;;;;;;;0.50;0.20;;;;;;;27.37;78.73;100083.44;5053608;28;20444;-49
2023/06/22 08:40:08;;;;;;;0.50;0.30;;;;;;;27.93;77.00;100076.75;5053390;28;20491;-50
2023/06/22 08:42:35;;;;;;;0.50;0.30;;;;;;;27.49;77.03;100081.34;5048792;23;20497;-54
2023/06/22 08:45:02;;;;;;;0.50;0.30;;;;;;;27.30;78.27;100086.97;5046051;28;20494;-53
2023/06/22 08:47:28;;;;;;;0.50;0.30;;;;;;;27.57;78.46;100083.28;5053338;28;20486;-54
2023/06/22 08:49:55;;;;;;;0.50;0.33;;;;;;;27.47;77.51;100083.38;5051964;28;20441;-53
2023/06/22 08:52:23;;;;;;;0.50;0.30;;;;;;;28.09;76.28;100080.59;5053110;28;20457;-54
2023/06/22 08:54:51;;;;;;;0.50;0.30;;;;;;;28.02;77.29;100088.59;5052677;28;20546;-53
2023/06/22 08:57:17;;;;;;;1.50;1.40;;;;;;;27.85;76.93;100071.25;5053191;28;20498;-53
2023/06/22 08:59:44;;;;;;;0.50;0.30;;;;;;;27.79;77.32;100071.88;5052660;28;20441;-53
2023/06/22 09:02:10;;;;;;;0.50;0.30;;;;;;;27.73;77.50;100073.38;5052635;28;20874;-53
2023/06/22 09:04:37;;;;;;;0.50;0.30;;;;;;;27.80;77.42;100070.00;5052579;28;20477;-53
2023/06/22 09:07:04;;;;;;;0.50;0.30;;;;;;;28.09;75.94;100081.47;5052544;28;20934;-54
2023/06/22 09:09:30;;;;;;;0.50;0.30;;;;;;;27.65;77.26;100072.44;5052533;28;20433;-54
2023/06/22 09:11:57;;;;;;;0.50;0.30;;;;;;;27.87;77.01;100077.41;5045624;28;20568;-53
2023/06/22 09:14:23;;;;;;;0.50;0.30;;;;;;;28.13;77.33;100062.88;5052446;28;20467;-54
2023/06/22 09:16:50;;;;;;;0.50;0.20;;;;;;;28.49;77.07;100055.38;5067346;28;20469;-54
2023/06/22 09:19:16;;;;;;;0.50;0.30;;;;;;;28.56;75.32;100059.19;5052506;28;20467;-54
2023/06/22 09:21:43;;;;;;;0.50;0.30;;;;;;;28.01;75.19;100063.16;5052215;28;20437;-54
2023/06/22 09:24:10;;;;;;;0.50;0.30;;;;;;;28.13;75.99;100062.88;5052190;28;20800;-54
2023/06/22 09:26:36;;;;;;;0.50;0.23;;;;;;;28.02;76.18;100058.53;5052253;28;21032;-54
2023/06/22 09:29:05;;;;;;;0.50;0.30;;;;;;;28.01;77.14;100045.91;5045153;28;20488;-53
2023/06/22 09:31:32;;;;;;;0.50;0.30;;;;;;;28.02;76.29;100047.59;5052262;28;20470;-54
2023/06/22 09:33:58;;;;;;;0.50;0.30;;;;;;;28.21;75.93;100044.63;5052475;28;20465;-54
2023/06/22 09:36:25;;;;;;;0.50;0.30;;;;;;;28.30;74.50;100045.56;5052072;28;20477;-54
2023/06/22 09:38:55;;;;;;;0.50;0.30;;;;;;;28.22;74.93;100042.75;5052305;28;20445;-54
2023/06/22 09:41:22;;;;;;;0.50;0.20;;;;;;;28.47;74.60;100039.13;5052220;28;20437;-54
2023/06/22 09:43:49;;;;;;;0.50;0.30;;;;;;;28.38;74.33;100028.34;5051781;28;20544;-53
2023/06/22 09:46:16;;;;;;;0.50;0.30;;;;;;;28.27;75.87;100019.41;5051963;28;20469;-53
2023/06/22 09:48:43;;;;;;;0.50;0.30;;;;;;;28.39;74.85;100019.97;5052250;28;20467;-53
2023/06/22 09:51:10;;;;;;;0.50;0.30;;;;;;;28.34;75.33;100019.59;5051848;28;20440;-54
2023/06/22 09:53:38;;;;;;;0.50;0.40;;;;;;;28.16;75.17;100002.41;5051814;28;20470;-53
2023/06/22 09:56:06;;;;;;;0.50;0.30;;;;;;;28.40;75.42;100008.00;5051970;28;20520;-53
2023/06/22 09:58:32;;;;;;;0.50;0.30;;;;;;;28.41;75.04;100004.25;5051718;28;20464;-54
2023/06/22 10:00:59;;;;;;;0.50;0.30;;;;;;;28.58;74.49;99999.69;5051747;28;20487;-53
2023/06/22 10:03:25;;;;;;;0.50;0.30;;;;;;;28.28;73.96;100001.13;5051275;28;20457;-54
2023/06/22 10:05:52;;;;;;;0.50;0.30;;;;;;;28.47;74.24;100002.72;5051403;28;21027;-54
2023/06/22 10:08:19;;;;;;;0.50;0.30;;;;;;;28.69;73.03;100001.25;5052011;28;20503;-54
2023/06/22 10:10:45;;;;;;;0.87;0.40;;;;;;;28.87;72.25;99988.31;5051461;28;20468;-53
2023/06/22 10:13:12;;;;;;;0.50;0.30;;;;;;;28.78;72.76;99981.97;5051605;28;20488;-53
2023/06/22 10:15:38;;;;;;;2.60;1.80;;;;;;;29.22;72.18;99972.63;5051367;28;20459;-53
2023/06/22 10:18:05;;;;;;;0.50;0.30;;;;;;;29.55;70.62;99957.00;5051409;28;21021;-54
2023/06/22 10:20:32;;;;;;;0.50;0.30;;;;;;;29.48;70.38;99956.88;5051286;28;20437;-54
2023/06/22 10:22:58;;;;;;;0.50;0.30;;;;;;;29.75;69.41;99950.13;5051717;28;20515;-54
2023/06/22 10:25:26;;;;;;;0.50;0.30;;;;;;;29.41;69.43;99942.97;5051653;28;20505;-54
2023/06/22 10:27:53;;;;;;;0.50;0.30;;;;;;;29.58;69.45;99945.69;5051539;28;20472;-54
2023/06/22 10:30:19;;;;;;;0.50;0.30;;;;;;;29.42;68.38;99949.28;5051484;28;20447;-54
2023/06/22 10:32:46;;;;;;;0.50;0.30;;;;;;;29.61;68.07;99939.91;5051265;28;20486;-54
2023/06/22 10:35:15;;;;;;;0.50;0.30;;;;;;;29.55;69.07;99938.69;5051615;28;20561;-54
2023/06/22 10:37:46;;;;;;;1.13;1.00;;;;;;;29.62;68.50;99944.34;5051363;28;20463;-54
2023/06/22 10:40:13;;;;;;;0.50;0.30;;;;;;;30.04;67.41;99936.66;5051742;28;20878;-54
2023/06/22 10:42:40;;;;;;;0.50;0.30;;;;;;;30.38;65.88;99936.34;5051082;28;20556;-54
2023/06/22 10:45:09;;;;;;;0.50;0.30;;;;;;;30.32;65.52;99933.47;5051068;28;20491;-54
2023/06/22 10:47:36;;;;;;;0.50;0.30;;;;;;;29.90;64.02;99926.44;5033715;28;20490;-53
2023/06/22 10:50:03;;;;;;;0.50;0.30;;;;;;;30.64;64.49;99918.72;5044121;28;20493;-53
2023/06/22 10:52:30;;;;;;;0.50;0.30;;;;;;;30.92;63.38;99930.00;5051517;28;20552;-54
2023/06/22 10:54:56;;;;;;;0.50;0.30;;;;;;;30.35;63.19;99914.75;5051346;28;20453;-53
2023/06/22 10:57:23;;;;;;;0.50;0.30;;;;;;;30.17;63.48;99913.31;5051365;28;20954;-52
2023/06/22 10:59:49;;;;;;;0.50;0.30;;;;;;;30.94;62.21;99905.94;5051577;28;20459;-53
2023/06/22 11:02:16;;;;;;;0.50;0.30;;;;;;;30.75;61.73;99899.09;5051267;28;20466;-54
2023/06/22 11:04:42;;;;;;;0.50;0.30;;;;;;;31.21;60.30;99897.16;5051331;28;20499;-54
2023/06/22 11:07:09;;;;;;;0.50;0.30;;;;;;;31.42;58.70;99888.19;5051303;28;20498;-54
2023/06/22 11:09:36;;;;;;;0.50;0.30;;;;;;;31.68;58.63;99900.63;5051163;28;20458;-53
2023/06/22 11:12:02;;;;;;;0.50;0.30;;;;;;;31.57;59.44;99906.59;5050963;28;20585;-53
2023/06/22 11:14:29;;;;;;;0.50;0.30;;;;;;;31.47;57.70;99904.09;5054309;28;20441;-53
2023/06/22 11:16:56;;;;;;;0.50;0.30;;;;;;;31.59;57.97;99901.75;5054755;28;20459;-54
2023/06/22 11:19:23;;;;;;;0.50;0.30;;;;;;;31.76;57.65;99892.28;5070229;28;20462;-54
2023/06/22 11:21:49;;;;;;;0.50;0.30;;;;;;;31.97;57.13;99886.88;5054693;28;20492;-53
2023/06/22 11:24:17;;;;;;;0.50;0.30;;;;;;;32.00;55.85;99891.97;5054701;28;20486;-53